Time;durP1;ratioP1;P1;durP2;ratioP2;P2;SDS_P1;SDS_P2;PMS_P1;PMS_P2;Temp;Humidity;BMP_temperature;BMP_pressure;BME280_temperature;BME280_humidity;BME280_pressure;Samples;Min_cycle;Max_cycle;Signal;HPM_P1;HPM_P2
2021/09/04 00:00:32;;;;;;;1.75;1.25;;;;;;;11.93;71.36;101819.75;4823200;29;20035;-82
2021/09/04 00:02:59;;;;;;;2.20;1.05;;;;;;;11.93;71.63;101830.53;4825906;29;20432;-82
2021/09/04 00:05:25;;;;;;;1.90;1.10;;;;;;;10.79;71.76;101639.13;4825307;29;20031;-81
2021/09/04 00:07:50;;;;;;;1.50;1.10;;;;;;;11.13;71.85;101696.28;4815218;29;20091;-82
2021/09/04 00:10:17;;;;;;;1.88;1.10;;;;;;;10.81;71.62;101655.09;4824873;29;20110;-81
2021/09/04 00:12:44;;;;;;;1.45;1.05;;;;;;;10.91;71.28;101674.53;4828464;29;20045;-81
2021/09/04 00:15:10;;;;;;;1.52;1.13;;;;;;;10.95;71.71;101683.94;4827277;29;20026;-82
2021/09/04 00:17:36;;;;;;;1.70;1.20;;;;;;;11.31;71.46;101725.56;4843545;29;20382;-81
2021/09/04 00:20:04;;;;;;;1.83;1.05;;;;;;;10.71;72.05;101639.19;4828216;29;20030;-81
2021/09/04 00:22:30;;;;;;;2.40;1.20;;;;;;;10.80;71.54;101631.91;4827065;29;20057;-81
2021/09/04 00:24:55;;;;;;;4.15;1.40;;;;;;;10.79;71.54;101641.84;4841307;29;20453;-82
2021/09/04 00:27:21;;;;;;;1.75;1.10;;;;;;;10.53;72.05;101588.34;4826841;29;20068;-82
2021/09/04 00:29:46;;;;;;;2.40;1.20;;;;;;;11.75;72.45;101787.66;4841701;29;20038;-82
2021/09/04 00:32:36;;;;;;;3.22;1.15;;;;;;;11.98;72.43;101828.94;4841648;29;20469;-82
2021/09/04 00:35:02;;;;;;;1.88;1.20;;;;;;;12.00;73.15;101836.88;4842086;29;20118;-82
2021/09/04 00:37:27;;;;;;;2.38;1.33;;;;;;;11.91;73.23;101825.31;4824342;29;20046;-81
2021/09/04 00:39:54;;;;;;;1.75;1.20;;;;;;;11.94;73.47;101837.59;4826006;29;20034;-82
2021/09/04 00:42:20;;;;;;;2.05;1.20;;;;;;;11.96;74.12;101838.25;4826366;29;20034;-82
2021/09/04 00:44:45;;;;;;;2.90;1.17;;;;;;;11.76;74.02;101808.25;4826109;29;20070;-81
2021/09/04 00:47:11;;;;;;;2.20;1.20;;;;;;;11.86;74.35;101829.59;4823678;29;20393;-81
2021/09/04 00:49:37;;;;;;;2.45;1.30;;;;;;;11.53;74.33;101774.06;4822760;29;20585;-81
2021/09/04 00:52:06;;;;;;;2.38;1.15;;;;;;;11.90;74.19;101847.06;4825488;29;20043;-82
2021/09/04 00:54:32;;;;;;;2.28;1.10;;;;;;;11.65;74.33;101806.78;4839595;29;20030;-82
2021/09/04 00:56:58;;;;;;;2.95;1.20;;;;;;;11.75;74.31;101828.97;4840675;29;20102;-81
2021/09/04 00:59:25;;;;;;;5.10;1.30;;;;;;;11.74;74.85;101826.44;4810799;29;20055;-82
2021/09/04 01:01:52;;;;;;;5.53;1.10;;;;;;;11.90;75.43;101853.31;4828516;29;20072;-82
2021/09/04 01:04:18;;;;;;;1.92;0.90;;;;;;;11.88;74.84;101849.09;4823974;29;20213;-82
2021/09/04 01:06:44;;;;;;;4.10;1.30;;;;;;;11.68;74.92;101819.91;4799170;29;20060;-82
2021/09/04 01:09:10;;;;;;;5.22;1.15;;;;;;;11.72;74.44;101831.16;4815508;29;20068;-82
2021/09/04 01:11:35;;;;;;;1.88;1.20;;;;;;;11.75;73.97;101849.69;4808105;29;20051;-82
2021/09/04 01:14:01;;;;;;;2.13;0.98;;;;;;;11.64;74.29;101826.69;4829154;29;20038;-82
2021/09/04 01:16:40;;;;;;;1.65;1.30;;;;;;;11.75;74.12;101850.56;4824991;29;20461;-81
2021/09/04 01:19:08;;;;;;;3.67;1.13;;;;;;;11.76;73.71;101854.91;4838195;29;20075;-82
2021/09/04 01:21:34;;;;;;;4.68;1.27;;;;;;;11.73;74.44;101852.56;4822621;29;20018;-82
2021/09/04 01:24:01;;;;;;;4.30;1.27;;;;;;;11.71;74.87;101860.00;4839109;29;20026;-81
2021/09/04 01:26:27;;;;;;;2.67;1.17;;;;;;;11.68;74.56;101854.97;4839038;29;20022;-81
2021/09/04 01:28:55;;;;;;;2.58;1.35;;;;;;;11.72;74.53;101853.59;4811219;29;20050;-82
2021/09/04 01:31:21;;;;;;;2.42;1.30;;;;;;;11.75;74.78;101849.69;4829824;29;20118;-83
2021/09/04 01:33:46;;;;;;;2.88;1.33;;;;;;;11.47;74.97;101804.44;4847317;29;20034;-82
2021/09/04 01:36:12;;;;;;;2.83;1.45;;;;;;;11.67;75.14;101837.13;4830086;29;20101;-82
2021/09/04 01:38:38;;;;;;;1.67;1.10;;;;;;;11.74;75.01;101848.84;4826029;29;20042;-82
2021/09/04 01:41:04;;;;;;;2.03;1.45;;;;;;;11.75;75.29;101853.25;4822036;29;20038;-81
2021/09/04 01:43:29;;;;;;;2.55;1.20;;;;;;;11.74;75.08;101856.09;4810767;29;20034;-81
2021/09/04 01:46:05;;;;;;;1.50;1.00;;;;;;;11.68;75.48;101852.25;4846849;29;20035;-82
2021/09/04 01:48:30;;;;;;;3.97;1.50;;;;;;;11.63;75.57;101840.38;4814864;29;20027;-83
2021/09/04 01:50:56;;;;;;;2.92;1.40;;;;;;;11.64;75.57;101850.13;4826491;29;20094;-82
2021/09/04 01:53:21;;;;;;;3.47;1.42;;;;;;;11.55;75.59;101833.16;4827215;29;20023;-82
2021/09/04 01:55:46;;;;;;;2.42;1.40;;;;;;;11.64;76.19;101855.50;4827305;29;20034;-81
2021/09/04 01:58:12;;;;;;;2.80;1.25;;;;;;;11.61;76.47;101858.56;4839561;29;20030;-81
2021/09/04 02:00:37;;;;;;;3.72;1.60;;;;;;;11.59;76.19;101857.91;4838574;29;20042;-82
2021/09/04 02:03:03;;;;;;;1.88;1.30;;;;;;;11.59;76.18;101860.59;4820883;29;20113;-82
2021/09/04 02:05:28;;;;;;;3.42;1.17;;;;;;;11.60;76.66;101860.44;4821851;29;20046;-81
2021/09/04 02:07:53;;;;;;;2.15;1.30;;;;;;;11.59;76.87;101861.47;4808338;29;20045;-82
2021/09/04 02:10:19;;;;;;;2.15;1.50;;;;;;;11.55;76.63;101857.41;4838618;29;20083;-81
2021/09/04 02:12:46;;;;;;;2.42;1.20;;;;;;;11.40;76.75;101838.50;4821705;29;20057;-81
2021/09/04 02:15:13;;;;;;;2.15;1.10;;;;;;;11.35;76.78;101831.97;4822115;29;20094;-82
2021/09/04 02:17:39;;;;;;;2.70;1.35;;;;;;;11.54;77.09;101861.16;4822826;29;20030;-82
2021/09/04 02:20:05;;;;;;;1.85;1.20;;;;;;;11.52;76.77;101860.47;4808283;29;20492;-82
2021/09/04 02:22:31;;;;;;;2.65;1.50;;;;;;;11.52;76.86;101865.88;4826890;29;20042;-82
2021/09/04 02:24:56;;;;;;;2.22;1.23;;;;;;;11.53;77.05;101856.78;4806212;29;20045;-82
2021/09/04 02:27:28;;;;;;;2.28;1.30;;;;;;;11.52;76.59;101864.03;4833767;29;20023;-82
2021/09/04 02:29:55;;;;;;;2.85;1.10;;;;;;;11.44;77.13;101847.91;4803090;29;20045;-82
2021/09/04 02:32:20;;;;;;;1.90;1.30;;;;;;;11.35;76.55;101834.66;4822854;29;20034;-81
2021/09/04 02:34:46;;;;;;;4.05;1.52;;;;;;;11.52;76.88;101863.16;4840491;29;20041;-82
2021/09/04 02:37:11;;;;;;;5.68;1.50;;;;;;;11.34;76.66;101833.84;4829220;29;20042;-82
2021/09/04 02:39:36;;;;;;;2.80;1.20;;;;;;;11.54;76.82;101874.63;4847230;29;20113;-82
2021/09/04 02:42:02;;;;;;;4.80;1.85;;;;;;;11.55;76.85;101870.91;4828653;29;20102;-82
2021/09/04 02:44:27;;;;;;;6.63;1.38;;;;;;;11.52;77.42;101874.81;4843560;29;20042;-82
2021/09/04 02:46:54;;;;;;;3.17;1.30;;;;;;;11.50;77.00;101867.91;4809226;29;20031;-82
2021/09/04 02:49:20;;;;;;;3.78;1.58;;;;;;;11.43;77.21;101866.97;4807138;29;20015;-82
2021/09/04 02:51:51;;;;;;;3.15;1.30;;;;;;;11.35;77.42;101858.91;4815650;29;20041;-81
2021/09/04 02:54:16;;;;;;;3.60;2.00;;;;;;;11.43;77.54;101883.13;4843525;29;20030;-82
2021/09/04 02:56:42;;;;;;;6.13;1.45;;;;;;;11.23;77.68;101850.41;4828366;29;20035;-81
2021/09/04 02:59:08;;;;;;;2.25;1.40;;;;;;;11.38;77.54;101877.44;4829014;29;20019;-82
2021/09/04 03:01:34;;;;;;;2.22;1.70;;;;;;;11.25;77.95;101870.75;4812317;29;20050;-82
2021/09/04 03:03:59;;;;;;;4.00;1.40;;;;;;;11.33;77.64;101882.53;4820099;29;20034;-82
2021/09/04 03:06:25;;;;;;;2.17;1.40;;;;;;;11.22;78.08;101863.03;4833317;29;20125;-82
2021/09/04 03:08:54;;;;;;;4.05;1.70;;;;;;;11.38;77.66;101888.22;4816337;29;20038;-81
2021/09/04 03:11:19;;;;;;;3.42;1.40;;;;;;;11.42;77.90;101897.59;4812682;29;20118;-82
2021/09/04 03:13:46;;;;;;;2.70;1.50;;;;;;;11.31;78.28;101888.06;4827008;29;20030;-82
2021/09/04 03:16:11;;;;;;;1.92;1.40;;;;;;;11.40;77.98;101903.19;4837529;29;20121;-82
2021/09/04 03:18:37;;;;;;;1.80;1.30;;;;;;;11.34;78.31;101894.97;4819503;29;20034;-81
2021/09/04 03:21:03;;;;;;;2.15;1.52;;;;;;;11.43;78.50;101915.47;4816510;29;20499;-82
2021/09/04 03:23:28;;;;;;;3.88;1.63;;;;;;;11.41;77.83;101914.81;4800576;29;20039;-82
2021/09/04 03:25:53;;;;;;;1.92;1.23;;;;;;;11.39;78.47;101911.44;4815545;29;20150;-81
2021/09/04 03:28:20;;;;;;;1.75;1.25;;;;;;;11.37;78.05;101917.00;4820434;29;20030;-81
2021/09/04 03:30:45;;;;;;;2.75;1.27;;;;;;;11.36;78.38;101909.13;4821003;29;20099;-82
2021/09/04 03:33:11;;;;;;;2.90;1.63;;;;;;;11.38;78.70;101915.16;4820201;29;20043;-82
2021/09/04 03:35:37;;;;;;;4.25;1.80;;;;;;;11.17;78.31;101895.06;4806497;29;20038;-81
2021/09/04 03:38:02;;;;;;;3.45;1.85;;;;;;;11.33;78.12;101922.94;4834095;29;20026;-82
2021/09/04 03:40:28;;;;;;;3.17;1.67;;;;;;;11.30;78.19;101924.13;4818615;29;20030;-81
2021/09/04 03:42:54;;;;;;;2.10;1.42;;;;;;;11.33;78.18;101920.25;4817645;29;20038;-82
2021/09/04 03:45:20;;;;;;;10.40;1.80;;;;;;;11.30;78.42;101916.06;4818591;29;20058;-82
2021/09/04 03:47:45;;;;;;;4.32;1.60;;;;;;;11.36;78.28;101920.75;4818199;29;20081;-82
2021/09/04 03:50:11;;;;;;;2.50;1.38;;;;;;;11.38;78.54;101931.31;4817753;29;20046;-81
2021/09/04 03:52:37;;;;;;;2.25;1.30;;;;;;;11.31;78.61;101915.03;4819034;29;20042;-82
2021/09/04 03:55:02;;;;;;;2.47;1.50;;;;;;;11.40;79.00;101932.84;4833894;29;20526;-82
2021/09/04 03:57:30;;;;;;;2.03;1.20;;;;;;;11.41;78.73;101936.38;4803488;29;20069;-82
2021/09/04 03:59:56;;;;;;;4.00;1.77;;;;;;;11.42;79.07;101941.59;4833618;29;20035;-82
2021/09/04 04:02:22;;;;;;;2.75;1.30;;;;;;;11.42;79.08;101951.50;4818983;29;20126;-82
2021/09/04 04:04:47;;;;;;;3.63;1.40;;;;;;;11.36;79.80;101933.38;4834023;29;20066;-82
2021/09/04 04:07:13;;;;;;;2.42;1.40;;;;;;;11.10;79.21;101902.19;4799907;29;20098;-82
2021/09/04 04:09:39;;;;;;;2.80;1.52;;;;;;;11.36;78.91;101942.28;4827984;29;20038;-82
2021/09/04 04:12:04;;;;;;;4.65;1.30;;;;;;;11.36;79.29;101941.47;4826431;29;20089;-81
2021/09/04 04:14:30;;;;;;;5.40;1.60;;;;;;;11.38;78.71;101940.25;4818976;29;20049;-81
2021/09/04 04:16:55;;;;;;;2.05;1.33;;;;;;;11.40;78.81;101950.88;4803738;29;20053;-82
2021/09/04 04:19:22;;;;;;;2.72;1.27;;;;;;;11.42;78.67;101951.50;4801903;29;20046;-81
2021/09/04 04:21:47;;;;;;;2.88;1.70;;;;;;;11.45;78.91;101954.69;4801258;29;20026;-82
2021/09/04 04:24:14;;;;;;;5.20;1.70;;;;;;;11.46;79.19;101958.25;4817174;29;20030;-81
2021/09/04 04:26:39;;;;;;;3.70;1.80;;;;;;;11.40;79.17;101953.56;4817801;29;20023;-81
2021/09/04 04:29:05;;;;;;;4.07;1.70;;;;;;;11.43;78.88;101956.75;4819388;29;20493;-81
2021/09/04 04:31:31;;;;;;;4.07;2.00;;;;;;;11.62;78.26;101957.28;4803798;29;20064;-81
2021/09/04 04:33:57;;;;;;;3.03;1.73;;;;;;;11.84;77.35;101940.31;4818639;29;20038;-81
2021/09/04 04:36:23;;;;;;;3.20;1.70;;;;;;;12.01;76.79;101964.47;4800213;29;20031;-81
2021/09/04 04:38:48;;;;;;;5.13;2.15;;;;;;;11.79;77.29;101966.13;4805339;29;20046;-82
2021/09/04 04:41:14;;;;;;;3.47;1.85;;;;;;;11.55;78.37;101964.41;4805511;29;20370;-81
2021/09/04 04:43:39;;;;;;;3.42;1.88;;;;;;;11.45;78.55;101970.84;4805522;29;20038;-82
2021/09/04 04:46:05;;;;;;;3.83;2.28;;;;;;;11.26;79.04;101945.19;4818621;29;20478;-81
2021/09/04 04:48:30;;;;;;;4.95;2.60;;;;;;;11.35;79.00;101974.78;4818666;29;20064;-82
2021/09/04 04:50:56;;;;;;;4.45;2.22;;;;;;;11.35;79.32;101974.78;4832979;29;20031;-82
2021/09/04 04:53:21;;;;;;;4.60;2.45;;;;;;;11.10;79.45;101947.97;4811624;29;20042;-82
2021/09/04 04:55:47;;;;;;;5.68;2.42;;;;;;;11.33;79.30;101983.06;4805546;29;20115;-81
2021/09/04 04:58:12;;;;;;;5.32;2.40;;;;;;;11.25;79.61;101958.84;4799089;30;20094;-81
2021/09/04 05:00:38;;;;;;;7.55;2.38;;;;;;;11.10;79.37;101937.19;4801273;29;20035;-81
2021/09/04 05:03:03;;;;;;;5.65;2.80;;;;;;;11.39;79.43;101976.09;4819981;29;20042;-81
2021/09/04 05:05:29;;;;;;;5.25;2.60;;;;;;;11.34;79.20;101965.03;4801953;29;20059;-81
2021/09/04 05:07:54;;;;;;;5.47;2.60;;;;;;;11.39;79.29;101989.59;4820927;29;20035;-82
2021/09/04 05:10:20;;;;;;;5.93;2.75;;;;;;;11.32;79.31;101980.53;4825386;29;20043;-80
2021/09/04 05:12:46;;;;;;;5.78;2.70;;;;;;;11.38;79.49;101999.53;4827400;29;20034;-81
2021/09/04 05:15:12;;;;;;;5.03;2.55;;;;;;;11.41;79.30;101995.66;4827818;29;20030;-82
2021/09/04 05:17:37;;;;;;;6.88;2.28;;;;;;;11.48;79.39;101985.84;4823048;29;20358;-81
2021/09/04 05:20:05;;;;;;;5.65;2.50;;;;;;;11.47;79.30;101982.31;4818339;29;20039;-81
2021/09/04 05:22:32;;;;;;;5.20;2.53;;;;;;;11.63;78.95;102002.97;4827593;29;20121;-82
2021/09/04 05:24:59;;;;;;;4.43;2.53;;;;;;;11.53;78.60;101987.00;4835971;29;20038;-82
2021/09/04 05:27:24;;;;;;;5.32;2.28;;;;;;;11.61;78.32;101999.59;4835288;29;20038;-81
2021/09/04 05:29:50;;;;;;;4.75;2.22;;;;;;;11.60;78.17;102002.47;4835730;29;20030;-82
2021/09/04 05:32:22;;;;;;;5.85;2.58;;;;;;;11.55;78.21;101997.59;4833867;29;20030;-82
2021/09/04 05:34:49;;;;;;;2.85;2.08;;;;;;;11.47;77.56;101976.94;4821670;29;20045;-81
2021/09/04 05:37:14;;;;;;;8.23;2.40;;;;;;;11.70;77.47;102011.19;4827603;29;20423;-81
2021/09/04 05:39:39;;;;;;;7.82;2.30;;;;;;;11.74;76.95;102005.25;4820900;29;20172;-82
2021/09/04 05:42:05;;;;;;;4.93;2.45;;;;;;;11.80;76.93;102006.41;4834767;29;20125;-81
2021/09/04 05:44:30;;;;;;;5.63;2.30;;;;;;;11.70;76.82;101986.91;4806662;29;20030;-82
2021/09/04 05:46:55;;;;;;;5.28;2.10;;;;;;;11.88;76.82;102010.94;4837743;29;20030;-81
2021/09/04 05:49:21;;;;;;;3.40;2.05;;;;;;;11.93;76.83;102019.34;4807592;29;20068;-82
2021/09/04 05:51:46;;;;;;;3.42;2.00;;;;;;;11.98;76.86;102019.63;4835036;29;20466;-81
2021/09/04 05:54:12;;;;;;;4.40;2.25;;;;;;;12.00;76.81;102009.50;4835581;29;20030;-81
2021/09/04 05:56:38;;;;;;;5.22;2.30;;;;;;;12.09;76.58;102013.00;4819233;29;20090;-81
2021/09/04 05:59:03;;;;;;;6.10;2.33;;;;;;;12.17;76.40;102016.47;4818925;29;20053;-81
2021/09/04 06:01:28;;;;;;;3.42;2.20;;;;;;;12.25;76.28;102020.13;4832629;29;20045;-81
2021/09/04 06:03:55;;;;;;;4.28;1.90;;;;;;;12.24;76.21;102003.09;4819210;29;20143;-82
2021/09/04 06:06:21;;;;;;;4.20;2.30;;;;;;;12.44;76.07;102022.31;4818504;29;20407;-80
2021/09/04 06:08:46;;;;;;;5.40;2.10;;;;;;;12.42;75.80;102019.00;4832892;29;20034;-82
2021/09/04 06:11:12;;;;;;;4.22;2.25;;;;;;;12.49;75.40;102038.00;4805690;29;20118;-82
2021/09/04 06:13:38;;;;;;;4.20;1.85;;;;;;;12.36;75.53;102009.75;4821483;29;20045;-82
2021/09/04 06:16:03;;;;;;;6.60;1.95;;;;;;;12.49;75.24;102032.59;4838812;29;20065;-81
2021/09/04 06:18:29;;;;;;;3.30;1.90;;;;;;;12.53;74.99;102034.75;4807143;29;20034;-81
2021/09/04 06:20:54;;;;;;;4.03;2.00;;;;;;;12.49;74.58;102030.72;4838199;29;20067;-81
2021/09/04 06:23:20;;;;;;;2.92;1.95;;;;;;;12.46;74.73;102028.41;4824940;29;20049;-81
2021/09/04 06:25:45;;;;;;;4.15;1.98;;;;;;;12.02;74.60;101972.41;4825201;29;20054;-82
2021/09/04 06:28:10;;;;;;;4.50;1.85;;;;;;;12.28;74.51;102008.97;4838834;29;20038;-82
2021/09/04 06:30:36;;;;;;;6.18;2.03;;;;;;;12.49;74.38;102024.50;4835620;29;20039;-82
2021/09/04 06:33:01;;;;;;;5.93;2.03;;;;;;;12.70;74.06;102040.84;4805464;29;20138;-81
2021/09/04 06:35:27;;;;;;;4.18;1.80;;;;;;;12.76;73.96;102041.97;4804643;29;20114;-82
2021/09/04 06:37:53;;;;;;;3.60;1.80;;;;;;;12.78;73.67;102037.22;4823457;29;20038;-82
2021/09/04 06:40:19;;;;;;;5.03;1.75;;;;;;;12.72;73.30;102022.59;4809844;29;20038;-81
2021/09/04 06:42:44;;;;;;;3.63;1.95;;;;;;;12.89;73.35;102028.66;4839140;29;20072;-82
2021/09/04 06:45:11;;;;;;;2.70;1.70;;;;;;;12.83;72.94;102026.72;4824615;29;20074;-82
2021/09/04 06:47:36;;;;;;;4.40;1.58;;;;;;;12.88;72.40;102051.28;4840947;29;20130;-82
2021/09/04 06:50:03;;;;;;;3.00;1.85;;;;;;;12.57;72.55;102008.22;4843278;29;20014;-82
2021/09/04 06:52:29;;;;;;;3.92;1.90;;;;;;;12.83;72.75;102056.41;4834677;29;20461;-82
2021/09/04 06:54:55;;;;;;;2.22;1.52;;;;;;;12.68;72.79;102046.44;4826212;29;20044;-82
2021/09/04 06:57:20;;;;;;;5.18;1.80;;;;;;;12.87;72.63;102065.81;4837693;29;20034;-82
2021/09/04 06:59:46;;;;;;;4.22;1.80;;;;;;;12.63;72.37;102021.00;4825554;29;20057;-81
2021/09/04 07:02:11;;;;;;;3.00;1.77;;;;;;;12.92;72.09;102066.97;4824848;29;20034;-82
2021/09/04 07:04:37;;;;;;;3.75;1.80;;;;;;;12.86;71.73;102040.69;4820537;29;20121;-81
2021/09/04 07:07:05;;;;;;;3.85;1.60;;;;;;;13.20;70.90;102071.75;4824336;29;20031;-82
2021/09/04 07:09:33;;;;;;;2.95;1.60;;;;;;;13.20;69.84;102077.16;4840612;29;20047;-81
2021/09/04 07:11:59;;;;;;;3.10;1.70;;;;;;;13.26;69.85;102076.44;4835354;29;20074;-82
2021/09/04 07:14:24;;;;;;;2.22;1.60;;;;;;;13.41;69.93;102087.28;4834493;29;20075;-82
2021/09/04 07:16:52;;;;;;;2.40;1.52;;;;;;;13.44;69.59;102086.88;4818707;29;20055;-82
2021/09/04 07:19:18;;;;;;;1.73;1.20;;;;;;;13.20;69.10;102054.69;4828987;29;20043;-82
2021/09/04 07:21:44;;;;;;;2.92;1.30;;;;;;;13.42;69.46;102080.81;4829236;29;20018;-82
2021/09/04 07:24:10;;;;;;;2.42;1.33;;;;;;;13.54;69.11;102079.34;4843368;29;20077;-82
2021/09/04 07:26:37;;;;;;;2.33;1.40;;;;;;;13.56;68.96;102074.56;4825253;29;20019;-82
2021/09/04 07:29:02;;;;;;;2.05;1.20;;;;;;;13.54;69.07;102082.03;4844756;29;20009;-82
2021/09/04 07:31:28;;;;;;;1.77;1.33;;;;;;;13.43;68.81;102052.75;4844481;29;20039;-80
2021/09/04 07:33:53;;;;;;;3.35;1.20;;;;;;;13.56;69.10;102066.44;4841222;29;20034;-83
2021/09/04 07:36:19;;;;;;;1.88;1.20;;;;;;;13.79;68.85;102081.72;4843617;29;20038;-82
2021/09/04 07:38:44;;;;;;;2.50;1.40;;;;;;;13.84;69.03;102081.97;4844202;29;20018;-83
2021/09/04 07:41:09;;;;;;;2.22;1.20;;;;;;;13.85;69.23;102083.69;4828159;29;20052;-82
2021/09/04 07:43:37;;;;;;;3.15;1.20;;;;;;;13.59;69.30;102039.03;4839215;29;20023;-82
2021/09/04 07:46:04;;;;;;;2.00;1.33;;;;;;;13.63;69.29;102072.78;4825099;29;20027;-81
2021/09/04 07:48:30;;;;;;;1.95;1.23;;;;;;;13.70;69.27;102077.44;4830850;29;20034;-82
2021/09/04 07:50:56;;;;;;;1.67;1.17;;;;;;;13.72;69.31;102083.50;4847541;29;20037;-82
2021/09/04 07:53:23;;;;;;;2.83;1.30;;;;;;;13.90;69.27;102085.81;4847641;29;20063;-82
2021/09/04 07:55:50;;;;;;;2.75;1.17;;;;;;;13.94;69.04;102093.38;4832549;29;20031;-82
2021/09/04 07:58:15;;;;;;;1.85;1.13;;;;;;;13.90;69.03;102096.63;4833296;29;20027;-82
2021/09/04 08:00:41;;;;;;;2.58;1.17;;;;;;;13.75;68.95;102083.97;4817384;29;20023;-82
2021/09/04 08:03:06;;;;;;;2.40;1.00;;;;;;;13.98;69.10;102096.53;4832417;29;20022;-81
2021/09/04 08:05:32;;;;;;;2.28;1.30;;;;;;;13.94;68.71;102093.38;4830184;29;20034;-82
2021/09/04 08:07:57;;;;;;;2.75;1.13;;;;;;;13.89;68.69;102081.44;4833335;29;20038;-83
2021/09/04 08:10:23;;;;;;;2.67;1.13;;;;;;;13.51;68.60;102009.41;4833364;29;20106;-82
2021/09/04 08:12:49;;;;;;;1.35;1.10;;;;;;;13.99;68.86;102099.03;4827098;29;20046;-82
2021/09/04 08:15:14;;;;;;;2.03;1.45;;;;;;;13.99;68.56;102099.03;4815894;29;20038;-83
2021/09/04 08:17:40;;;;;;;1.20;1.08;;;;;;;14.11;68.06;102104.81;4830949;29;20018;-82
2021/09/04 08:20:07;;;;;;;2.78;1.13;;;;;;;14.20;68.43;102105.50;4831463;29;20019;-83
2021/09/04 08:22:51;;;;;;;3.28;1.50;;;;;;;13.45;68.44;101996.63;5123890;24;20042;-83
2021/09/04 08:25:18;;;;;;;1.80;1.10;;;;;;;12.99;68.50;101915.75;4849707;29;20060;-83
2021/09/04 08:27:44;;;;;;;2.72;1.30;;;;;;;13.39;68.54;101962.25;4850013;29;20066;-82
2021/09/04 08:30:10;;;;;;;1.52;1.17;;;;;;;13.47;67.30;101910.75;4834473;29;20034;-83
2021/09/04 08:32:36;;;;;;;2.30;1.20;;;;;;;14.03;66.44;101962.31;4829133;29;20068;-83
2021/09/04 08:35:02;;;;;;;1.98;1.10;;;;;;;15.36;65.54;102123.25;4829517;29;20019;-82
2021/09/04 08:37:28;;;;;;;4.05;1.15;;;;;;;14.27;64.88;101896.09;4841376;29;20031;-83
2021/09/04 08:39:55;;;;;;;2.15;1.38;;;;;;;14.84;64.35;101944.84;4849980;29;20034;-83
2021/09/04 08:42:20;;;;;;;2.50;1.15;;;;;;;14.91;63.16;101924.03;4834475;29;20018;-83
2021/09/04 08:47:22;;;;;;;2.05;1.10;;;;;;;15.49;62.67;101995.81;4889611;24;20073;-83
2021/09/04 08:49:49;;;;;;;1.73;1.10;;;;;;;15.02;62.43;101926.16;4831440;29;20035;-81
2021/09/04 08:52:18;;;;;;;3.15;1.65;;;;;;;15.77;61.42;102070.09;4814792;29;20019;-82
2021/09/04 08:54:47;;;;;;;3.28;1.30;;;;;;;14.68;61.24;101910.78;4831110;29;20007;-82
2021/09/04 08:57:13;;;;;;;1.67;1.10;;;;;;;15.18;61.46;102000.91;4814071;29;20086;-82
2021/09/04 08:59:40;;;;;;;3.58;1.10;;;;;;;15.02;61.01;101980.38;4818112;29;20018;-81
2021/09/04 09:02:13;;;;;;;2.13;1.10;;;;;;;14.87;59.99;101958.00;4830415;29;20031;-82
2021/09/04 09:04:40;;;;;;;3.50;1.40;;;;;;;15.00;61.24;102002.28;4827552;29;20011;-83
2021/09/04 09:07:10;;;;;;;1.65;0.93;;;;;;;14.61;60.89;101945.13;4813350;29;20036;-82
2021/09/04 09:09:37;;;;;;;2.60;1.23;;;;;;;15.65;61.21;102086.06;4814567;29;20023;-82
2021/09/04 09:12:12;;;;;;;2.25;1.40;;;;;;;14.79;58.36;101945.44;4826430;29;20065;-81
2021/09/04 09:14:57;;;;;;;3.42;1.10;;;;;;;15.61;59.45;102071.22;4811585;29;20023;-81
2021/09/04 09:17:25;;;;;;;;;;;;;;;16.11;61.02;102140.56;4814410;29;20039;-82
2021/09/04 09:20:03;;;;;;;1.30;0.90;;;;;;;15.54;61.35;102079.34;4814365;29;19972;-82
2021/09/04 09:22:48;;;;;;;2.70;1.10;;;;;;;15.84;61.68;102133.38;4814366;29;20031;-82
2021/09/04 09:25:15;;;;;;;1.55;1.00;;;;;;;14.48;62.07;101930.41;4816512;29;20015;-82
2021/09/04 09:27:59;;;;;;;2.80;1.10;;;;;;;15.26;59.77;102004.31;4829383;29;20046;-82
2021/09/04 09:30:36;;;;;;;3.33;1.48;;;;;;;16.28;59.60;102154.63;4829794;29;20011;-82
2021/09/04 09:33:05;;;;;;;4.25;0.95;;;;;;;15.72;60.11;102078.81;4829062;29;20026;-82
2021/09/04 09:38:23;;;;;;;1.63;0.90;;;;;;;15.74;59.80;102099.28;5377054;24;20050;-82
2021/09/04 09:40:56;;;;;;;1.60;1.00;;;;;;;15.13;58.86;102011.50;5001433;24;20067;-84
2021/09/04 09:46:03;;;;;;;3.08;0.90;;;;;;;14.62;58.74;101954.91;5194874;24;20031;-83
2021/09/04 09:48:31;;;;;;;1.55;0.98;;;;;;;14.74;59.87;101970.44;4828757;29;20019;-82
2021/09/04 09:50:59;;;;;;;0.82;0.70;;;;;;;14.59;58.28;101953.44;4828755;29;20014;-83
2021/09/04 09:53:26;;;;;;;2.07;0.97;;;;;;;15.92;59.20;102161.16;5748643;24;20058;-78
2021/09/04 09:55:56;;;;;;;1.52;0.93;;;;;;;14.72;59.13;101952.69;4865357;29;20038;-81
2021/09/04 09:58:23;;;;;;;2.03;0.73;;;;;;;16.16;59.01;102167.97;4866047;29;20030;-83
2021/09/04 10:03:26;;;;;;;2.67;0.90;;;;;;;15.08;56.44;101970.63;5670696;24;20089;-82
2021/09/04 10:05:53;;;;;;;1.73;0.93;;;;;;;16.33;56.53;102152.16;4880026;24;20042;-80
2021/09/04 10:13:30;;;;;;;1.10;0.90;;;;;;;15.87;54.28;102060.50;5415075;24;20055;-83
2021/09/04 10:15:57;;;;;;;1.00;0.88;;;;;;;15.81;54.15;102030.63;4811455;29;20035;-82
2021/09/04 10:18:25;;;;;;;2.10;0.90;;;;;;;16.28;49.60;102107.63;4811123;29;20050;-83
2021/09/04 10:21:05;;;;;;;1.17;0.75;;;;;;;16.58;48.62;102151.56;4808565;29;20019;-83
2021/09/04 10:23:30;;;;;;;0.90;0.80;;;;;;;16.71;48.98;102158.91;4808693;29;20019;-82
2021/09/04 10:26:32;;;;;;;2.17;0.70;;;;;;;16.58;47.07;102132.56;4810890;29;20027;-83
2021/09/04 10:29:16;;;;;;;1.10;0.80;;;;;;;16.29;44.72;102085.72;4794025;30;20012;-83
2021/09/04 10:31:58;;;;;;;1.63;0.77;;;;;;;16.85;44.96;102153.34;4793627;29;20044;-83
2021/09/04 10:34:30;;;;;;;2.17;0.90;;;;;;;16.30;45.24;102053.94;4793635;30;20040;-83
2021/09/04 10:37:14;;;;;;;1.40;0.88;;;;;;;17.04;43.27;102162.53;4780972;30;20046;-82
2021/09/04 10:40:02;;;;;;;1.70;0.90;;;;;;;15.63;39.26;101936.19;4794883;30;20012;-83
2021/09/04 10:42:34;;;;;;;1.67;0.75;;;;;;;17.02;41.38;102147.47;4793629;30;20024;-83
2021/09/04 10:45:08;;;;;;;1.02;0.68;;;;;;;16.96;42.34;102151.03;4819727;29;20014;-84
2021/09/04 10:47:41;;;;;;;2.08;0.82;;;;;;;15.74;40.76;101935.63;4829683;29;20050;-82
2021/09/04 10:50:25;;;;;;;1.55;0.95;;;;;;;17.18;41.91;102155.19;4806016;29;20059;-82
2021/09/04 10:52:57;;;;;;;0.90;0.77;;;;;;;17.20;42.70;102139.53;4810688;29;20251;-84
2021/09/04 10:55:42;;;;;;;1.08;0.80;;;;;;;17.17;40.25;102158.97;4815165;29;20057;-83
2021/09/04 10:58:09;;;;;;;1.70;0.80;;;;;;;17.27;43.08;102158.56;4813539;29;20027;-82
2021/09/04 11:00:42;;;;;;;1.15;0.60;;;;;;;15.87;41.68;101930.22;4810788;29;20023;-83
2021/09/04 11:08:35;;;;;;;1.27;0.77;;;;;;;17.12;41.51;102145.19;5521995;24;20046;-83
2021/09/04 11:11:27;;;;;;;0.77;0.63;;;;;;;17.24;43.13;102146.19;4828365;29;20037;-83
2021/09/04 11:14:01;;;;;;;0.88;0.60;;;;;;;16.35;43.18;102000.66;4828555;29;20030;-83
2021/09/04 11:16:36;;;;;;;1.08;0.80;;;;;;;17.45;44.25;102144.28;4813053;29;20039;-82
2021/09/04 11:29:56;;;;;;;1.55;0.90;;;;;;;17.46;42.43;102145.97;5071485;24;20039;-83
2021/09/04 11:32:29;;;;;;;1.30;0.80;;;;;;;16.18;43.07;101931.50;4810907;30;20059;-82
2021/09/04 11:35:03;;;;;;;2.78;0.70;;;;;;;16.18;42.69;101915.22;4815579;29;20014;-84
2021/09/04 11:37:48;;;;;;;1.10;0.70;;;;;;;16.39;42.79;101954.88;4831771;29;20039;-81
2021/09/04 11:40:17;;;;;;;2.65;0.80;;;;;;;17.21;43.08;102075.06;4840138;29;20046;-83
2021/09/04 11:42:49;;;;;;;2.05;1.00;;;;;;;17.60;43.91;102158.50;4835984;29;20022;-85
2021/09/04 11:45:16;;;;;;;1.77;0.75;;;;;;;16.56;42.96;101971.63;4832039;29;20018;-82
2021/09/04 11:47:48;;;;;;;2.25;0.80;;;;;;;16.44;42.12;101960.53;4824740;29;20022;-82
2021/09/04 11:50:32;;;;;;;1.48;0.90;;;;;;;16.33;41.04;101950.31;4834899;29;20026;-83
2021/09/04 11:53:12;;;;;;;2.50;0.73;;;;;;;16.35;41.52;101940.88;4838654;29;20019;-82
2021/09/04 11:55:39;;;;;;;1.17;0.90;;;;;;;17.30;40.74;102090.97;4838912;29;20027;-82
2021/09/04 11:58:11;;;;;;;2.35;0.85;;;;;;;16.43;40.10;101954.28;4830513;29;20049;-83